Time;durP1;ratioP1;P1;durP2;ratioP2;P2;SDS_P1;SDS_P2;PMS_P1;PMS_P2;Temp;Humidity;BMP_temperature;BMP_pressure;BME280_temperature;BME280_humidity;BME280_pressure;Samples;Min_cycle;Max_cycle;Signal;HPM_P1;HPM_P2
2021/10/11 00:02:22;;;;;;;2.25;2.15;;;9.70;99.90;;;;;;5052065;28;20218;-76
2021/10/11 00:04:51;;;;;;;2.58;1.90;;;9.70;99.90;;;;;;5055798;28;20229;-73
2021/10/11 00:07:18;;;;;;;2.03;1.92;;;9.70;99.90;;;;;;5052593;28;20226;-76
2021/10/11 00:09:45;;;;;;;2.17;2.08;;;9.60;99.90;;;;;;5054521;28;20223;-73
2021/10/11 00:12:12;;;;;;;2.05;1.95;;;9.60;99.90;;;;;;5048053;28;20550;-73
2021/10/11 00:14:39;;;;;;;1.80;1.70;;;9.70;99.90;;;;;;5055126;28;20238;-76
2021/10/11 00:17:06;;;;;;;2.10;2.00;;;9.70;99.90;;;;;;5046332;28;20299;-74
2021/10/11 00:19:35;;;;;;;1.80;1.70;;;9.70;99.90;;;;;;5056304;28;20282;-73
2021/10/11 00:22:04;;;;;;;1.98;1.88;;;9.80;99.90;;;;;;5054371;28;20643;-75
2021/10/11 00:24:32;;;;;;;1.98;1.88;;;9.80;99.90;;;;;;5053492;28;20218;-76
2021/10/11 00:26:59;;;;;;;1.90;1.80;;;9.70;99.90;;;;;;5053701;28;20271;-74
2021/10/11 00:29:26;;;;;;;1.92;1.83;;;9.70;99.90;;;;;;5047760;28;20222;-74
2021/10/11 00:31:53;;;;;;;1.65;1.55;;;9.70;99.90;;;;;;5055696;28;20234;-75
2021/10/11 00:34:20;;;;;;;1.73;1.63;;;9.70;99.90;;;;;;5057114;28;20229;-75
2021/10/11 00:36:47;;;;;;;1.95;1.85;;;9.70;99.90;;;;;;5051249;28;20307;-73
2021/10/11 00:39:15;;;;;;;1.80;1.70;;;9.70;99.90;;;;;;5049694;28;20859;-75
2021/10/11 00:41:42;;;;;;;1.80;1.70;;;9.80;99.90;;;;;;5056462;28;20280;-73
2021/10/11 00:44:09;;;;;;;1.95;1.85;;;9.80;99.90;;;;;;5051682;28;20214;-72
2021/10/11 00:46:36;;;;;;;1.83;1.73;;;9.80;99.90;;;;;;5053642;28;20237;-74
2021/10/11 00:49:04;;;;;;;1.77;1.67;;;9.70;99.90;;;;;;5052772;28;20517;-73
2021/10/11 00:51:31;;;;;;;1.88;1.58;;;9.60;99.90;;;;;;5054678;28;20774;-72
2021/10/11 00:53:58;;;;;;;1.77;1.67;;;9.60;99.90;;;;;;5051692;28;20230;-72
2021/10/11 00:56:27;;;;;;;1.80;1.70;;;9.60;99.90;;;;;;5052913;28;20276;-72
2021/10/11 00:58:54;;;;;;;2.17;2.08;;;9.70;99.90;;;;;;5048534;28;20226;-75
2021/10/11 01:01:21;;;;;;;1.38;1.33;;;9.70;99.90;;;;;;5050519;28;20276;-74
2021/10/11 01:03:48;;;;;;;2.45;2.13;;;9.70;99.90;;;;;;5027614;28;20307;-74
2021/10/11 01:06:15;;;;;;;1.60;1.50;;;9.70;99.90;;;;;;5048314;28;20280;-72
2021/10/11 01:08:43;;;;;;;1.88;1.77;;;9.80;99.90;;;;;;5048057;28;20225;-75
2021/10/11 01:11:10;;;;;;;1.80;1.70;;;9.80;99.90;;;;;;5050155;28;20330;-74
2021/10/11 01:13:39;;;;;;;1.70;1.60;;;9.70;99.90;;;;;;5052546;28;20814;-75
2021/10/11 01:16:06;;;;;;;1.65;1.55;;;9.70;99.90;;;;;;5051735;28;20230;-75
2021/10/11 01:18:33;;;;;;;1.70;1.60;;;9.70;99.90;;;;;;5058547;28;20708;-75
2021/10/11 01:21:01;;;;;;;1.48;1.33;;;9.60;99.90;;;;;;5055681;28;20650;-77
2021/10/11 01:23:28;;;;;;;1.70;1.60;;;9.60;99.90;;;;;;5052630;28;20230;-74
2021/10/11 01:25:55;;;;;;;1.70;1.60;;;9.60;99.90;;;;;;5048268;28;20226;-74
2021/10/11 01:28:23;;;;;;;1.85;1.75;;;9.60;99.90;;;;;;5054779;28;20226;-73
2021/10/11 01:30:50;;;;;;;1.55;1.45;;;9.60;99.90;;;;;;5056683;28;20246;-73
2021/10/11 01:33:17;;;;;;;1.75;1.58;;;9.70;99.90;;;;;;5056356;28;20700;-75
2021/10/11 01:35:44;;;;;;;1.73;1.63;;;9.70;99.90;;;;;;5058958;28;20230;-74
2021/10/11 01:38:13;;;;;;;1.92;1.65;;;9.70;99.90;;;;;;5051893;28;20218;-72
2021/10/11 01:40:41;;;;;;;1.50;1.50;;;9.70;99.90;;;;;;5053296;28;20708;-77
2021/10/11 01:43:08;;;;;;;1.67;1.58;;;9.60;99.90;;;;;;5059486;28;20222;-75
2021/10/11 01:45:37;;;;;;;1.70;1.60;;;9.60;99.90;;;;;;5058264;28;20305;-76
2021/10/11 01:48:05;;;;;;;1.70;1.60;;;9.60;99.90;;;;;;5058760;28;20275;-74
2021/10/11 01:50:33;;;;;;;1.80;1.70;;;9.60;99.90;;;;;;5051573;28;20719;-72
2021/10/11 01:53:00;;;;;;;1.90;1.80;;;9.50;99.90;;;;;;5055503;28;20237;-79
2021/10/11 01:55:29;;;;;;;1.77;1.67;;;9.50;99.90;;;;;;5050026;28;20227;-72
2021/10/11 01:57:56;;;;;;;1.75;1.65;;;9.50;99.90;;;;;;5056263;28;20275;-73
2021/10/11 02:00:23;;;;;;;1.63;1.52;;;9.50;99.90;;;;;;5055640;28;20724;-73
2021/10/11 02:02:50;;;;;;;1.75;1.65;;;9.50;99.90;;;;;;5055953;28;20279;-74
2021/10/11 02:05:17;;;;;;;1.58;1.50;;;9.50;99.90;;;;;;5056119;28;20751;-74
2021/10/11 02:07:45;;;;;;;1.63;1.52;;;9.40;99.90;;;;;;5052865;28;20229;-73
2021/10/11 02:10:12;;;;;;;1.42;1.42;;;9.40;99.90;;;;;;5055970;28;20740;-73
2021/10/11 02:12:40;;;;;;;1.85;1.75;;;9.40;99.90;;;;;;5056879;28;20696;-75
2021/10/11 02:15:08;;;;;;;1.80;1.70;;;9.50;99.90;;;;;;5054855;28;20234;-74
2021/10/11 02:17:35;;;;;;;1.90;1.80;;;9.50;99.90;;;;;;5051537;28;20231;-72
2021/10/11 02:20:04;;;;;;;1.80;1.70;;;9.50;99.90;;;;;;5054420;28;20639;-73
2021/10/11 02:22:30;;;;;;;1.90;1.80;;;9.40;99.90;;;;;;5053168;28;20301;-72
2021/10/11 02:24:57;;;;;;;2.05;1.95;;;9.40;99.90;;;;;;5052638;28;20292;-75
2021/10/11 02:27:24;;;;;;;1.88;1.77;;;9.40;99.90;;;;;;5046894;28;20234;-74
2021/10/11 02:29:53;;;;;;;1.65;1.55;;;9.30;99.90;;;;;;5060380;28;20230;-72
2021/10/11 02:32:20;;;;;;;1.80;1.70;;;9.40;99.90;;;;;;5052837;28;20280;-73
2021/10/11 02:34:47;;;;;;;2.00;1.85;;;9.30;99.90;;;;;;5049708;28;20243;-73
2021/10/11 02:37:14;;;;;;;1.80;1.70;;;9.30;99.90;;;;;;5051362;28;20229;-72
2021/10/11 02:39:41;;;;;;;1.77;1.67;;;9.30;99.90;;;;;;5050318;28;20218;-73
2021/10/11 02:42:08;;;;;;;2.10;2.00;;;9.30;99.90;;;;;;5050262;28;20280;-78
2021/10/11 02:44:35;;;;;;;1.50;1.50;;;9.30;99.90;;;;;;5055948;28;20214;-74
2021/10/11 02:47:04;;;;;;;1.27;1.27;;;9.20;99.90;;;;;;5052785;28;20790;-75
2021/10/11 02:49:31;;;;;;;1.85;1.75;;;9.20;99.90;;;;;;5050018;28;20780;-74
2021/10/11 02:51:58;;;;;;;1.83;1.73;;;9.20;99.90;;;;;;5054947;28;20235;-77
2021/10/11 02:54:25;;;;;;;1.88;1.77;;;9.20;99.90;;;;;;5049600;28;20226;-73
2021/10/11 02:56:52;;;;;;;1.60;1.50;;;9.20;99.90;;;;;;5053230;28;20215;-78
2021/10/11 02:59:19;;;;;;;1.30;1.30;;;9.20;99.90;;;;;;5055999;28;20218;-73
2021/10/11 03:01:46;;;;;;;1.70;1.60;;;9.20;99.90;;;;;;5056991;28;20591;-73
2021/10/11 03:04:14;;;;;;;2.08;1.92;;;9.20;99.90;;;;;;5054446;28;20291;-72
2021/10/11 03:06:41;;;;;;;1.80;1.70;;;9.20;99.90;;;;;;5049545;28;20694;-75
2021/10/11 03:09:09;;;;;;;1.67;1.58;;;9.20;99.90;;;;;;5053665;28;20287;-77
2021/10/11 03:11:36;;;;;;;1.40;1.40;;;9.20;99.90;;;;;;5051871;28;20222;-76
2021/10/11 03:14:03;;;;;;;1.92;1.83;;;9.20;99.90;;;;;;5051319;28;20245;-72
2021/10/11 03:16:32;;;;;;;1.70;1.60;;;9.20;99.90;;;;;;5055219;28;20595;-77
2021/10/11 03:18:59;;;;;;;1.35;1.35;;;9.20;99.90;;;;;;5050770;28;20218;-73
2021/10/11 03:21:27;;;;;;;1.67;1.58;;;9.10;99.90;;;;;;5051973;28;20304;-73
2021/10/11 03:23:54;;;;;;;1.95;1.85;;;9.10;99.90;;;;;;5057471;28;20230;-77
2021/10/11 03:26:22;;;;;;;1.95;1.85;;;9.10;99.90;;;;;;5056329;28;20287;-75
2021/10/11 03:28:49;;;;;;;1.80;1.70;;;9.10;99.90;;;;;;5053836;28;20230;-75
2021/10/11 03:31:16;;;;;;;1.70;1.60;;;9.10;99.90;;;;;;5056098;28;20222;-74
2021/10/11 03:33:43;;;;;;;1.63;1.55;;;9.10;99.90;;;;;;5053315;28;20284;-75
2021/10/11 03:36:10;;;;;;;1.63;1.52;;;9.10;99.90;;;;;;5053214;28;20669;-76
2021/10/11 03:38:38;;;;;;;1.73;1.63;;;9.00;99.90;;;;;;5055100;28;20719;-74
2021/10/11 03:41:05;;;;;;;1.25;1.25;;;8.90;99.90;;;;;;5051810;28;20739;-75
2021/10/11 03:43:32;;;;;;;1.70;1.60;;;8.90;99.90;;;;;;5052867;28;20226;-76
2021/10/11 03:45:59;;;;;;;1.30;1.30;;;8.90;99.90;;;;;;5056046;28;20291;-77
2021/10/11 03:48:27;;;;;;;1.70;1.60;;;8.90;99.90;;;;;;5058746;28;20268;-73
2021/10/11 03:50:54;;;;;;;1.40;1.40;;;8.90;99.90;;;;;;5052980;28;20341;-75
2021/10/11 03:53:21;;;;;;;1.88;1.77;;;8.90;99.90;;;;;;5055757;28;20225;-72
2021/10/11 03:55:49;;;;;;;2.08;1.80;;;8.90;99.90;;;;;;5033436;28;20292;-75
2021/10/11 03:58:16;;;;;;;1.73;1.63;;;8.90;99.90;;;;;;5052374;28;20273;-73
2021/10/11 04:00:43;;;;;;;1.58;1.50;;;8.90;99.90;;;;;;5055890;28;20234;-74
2021/10/11 04:03:10;;;;;;;3.17;2.72;;;8.90;99.90;;;;;;5054005;28;20222;-73
2021/10/11 04:05:37;;;;;;;1.88;1.70;;;8.90;99.90;;;;;;5052765;28;20221;-74
2021/10/11 04:08:10;;;;;;;1.52;1.50;;;9.00;99.90;;;;;;5056325;28;20222;-73
2021/10/11 04:10:42;;;;;;;2.13;1.63;;;8.90;99.90;;;;;;5052568;28;20603;-74
2021/10/11 04:13:10;;;;;;;1.80;1.70;;;8.90;99.90;;;;;;5055948;28;20218;-76
2021/10/11 04:15:37;;;;;;;1.65;1.55;;;8.90;99.90;;;;;;5055841;28;20287;-73
2021/10/11 04:18:04;;;;;;;1.60;1.60;;;8.90;99.90;;;;;;5048647;28;20214;-74
2021/10/11 04:20:31;;;;;;;1.40;1.40;;;8.90;99.90;;;;;;5055720;28;20647;-75
2021/10/11 04:22:58;;;;;;;1.60;1.50;;;8.90;99.90;;;;;;5052514;28;20218;-74
2021/10/11 04:25:25;;;;;;;1.77;1.67;;;8.90;99.90;;;;;;5054853;28;20297;-72
2021/10/11 04:27:52;;;;;;;2.00;1.90;;;8.90;99.90;;;;;;5057176;28;20218;-73
2021/10/11 04:30:20;;;;;;;1.88;1.77;;;8.90;99.90;;;;;;5055175;28;20279;-78
2021/10/11 04:32:47;;;;;;;2.00;1.90;;;8.90;99.90;;;;;;5055351;28;20283;-74
2021/10/11 04:35:14;;;;;;;1.75;1.65;;;8.90;99.90;;;;;;5054914;28;20648;-74
2021/10/11 04:37:42;;;;;;;2.03;1.92;;;8.90;99.90;;;;;;5056867;28;20221;-72
2021/10/11 04:40:10;;;;;;;1.90;1.75;;;8.90;99.90;;;;;;5055539;28;20220;-73
2021/10/11 04:42:37;;;;;;;1.83;1.73;;;8.90;99.90;;;;;;5053364;28;20222;-72
2021/10/11 04:45:05;;;;;;;2.30;2.20;;;8.80;99.90;;;;;;5056345;28;20218;-77
2021/10/11 04:47:33;;;;;;;1.40;1.40;;;8.80;99.90;;;;;;5055093;28;20623;-73
2021/10/11 04:50:00;;;;;;;2.00;1.75;;;8.80;99.90;;;;;;5057651;28;20218;-74
2021/10/11 04:52:27;;;;;;;1.48;1.40;;;8.80;99.90;;;;;;5051667;28;20295;-71
2021/10/11 04:54:54;;;;;;;1.23;1.23;;;8.80;99.90;;;;;;5056469;28;20235;-76
2021/10/11 04:57:21;;;;;;;1.88;1.77;;;8.80;99.90;;;;;;5052126;28;20226;-73
2021/10/11 04:59:48;;;;;;;1.80;1.70;;;8.80;99.90;;;;;;5057606;28;20882;-73
2021/10/11 05:02:15;;;;;;;1.92;1.80;;;8.80;99.90;;;;;;5052818;28;20219;-73
2021/10/11 05:04:44;;;;;;;1.40;1.40;;;8.80;99.90;;;;;;5055994;28;20886;-73
2021/10/11 05:07:11;;;;;;;1.77;1.67;;;8.80;99.90;;;;;;5054603;28;20235;-77
2021/10/11 05:09:38;;;;;;;1.40;1.40;;;8.80;99.90;;;;;;5061571;28;20267;-74
2021/10/11 05:12:06;;;;;;;1.88;1.77;;;8.70;99.90;;;;;;5060139;28;20224;-72
2021/10/11 05:14:33;;;;;;;2.13;2.03;;;8.70;99.90;;;;;;5057071;28;20219;-73
2021/10/11 05:17:00;;;;;;;1.70;1.60;;;8.70;99.90;;;;;;5059751;22;20349;-76
2021/10/11 05:19:28;;;;;;;1.88;1.77;;;8.70;99.90;;;;;;5044590;28;20230;-75
2021/10/11 05:21:57;;;;;;;1.73;1.63;;;8.60;99.90;;;;;;5047466;28;20215;-79
2021/10/11 05:24:24;;;;;;;1.65;1.55;;;8.60;99.90;;;;;;5041206;28;20222;-75
2021/10/11 05:26:52;;;;;;;2.08;1.98;;;8.50;99.90;;;;;;5034804;28;20502;-76
2021/10/11 05:29:19;;;;;;;2.00;1.90;;;8.50;99.90;;;;;;5022507;28;20215;-77
2021/10/11 05:31:46;;;;;;;1.70;1.60;;;8.50;99.90;;;;;;5023435;28;20227;-78
2021/10/11 05:34:13;;;;;;;1.80;1.70;;;8.50;99.90;;;;;;5030989;28;20721;-75
2021/10/11 05:36:41;;;;;;;1.60;1.50;;;8.50;99.90;;;;;;5037688;28;20480;-80
2021/10/11 05:39:10;;;;;;;4.05;2.55;;;8.50;99.90;;;;;;5030766;28;20220;-74
2021/10/11 05:41:37;;;;;;;1.83;1.73;;;8.50;99.90;;;;;;5033849;28;20226;-77
2021/10/11 05:44:04;;;;;;;2.13;2.03;;;8.50;99.90;;;;;;5029742;28;20230;-75
2021/10/11 05:46:32;;;;;;;1.90;1.80;;;8.50;99.90;;;;;;5029374;28;20305;-78
2021/10/11 05:48:59;;;;;;;1.63;1.52;;;8.50;99.90;;;;;;5028538;28;20223;-75
2021/10/11 05:51:26;;;;;;;2.45;2.25;;;8.50;99.90;;;;;;5024469;28;20216;-75
2021/10/11 05:53:53;;;;;;;1.92;1.83;;;8.50;99.90;;;;;;5018747;28;20230;-76
2021/10/11 05:56:21;;;;;;;2.00;1.90;;;8.50;99.90;;;;;;5021118;28;20717;-74
2021/10/11 05:58:48;;;;;;;1.90;1.80;;;8.50;99.90;;;;;;5030515;28;20259;-80
2021/10/11 06:01:15;;;;;;;1.90;1.80;;;8.50;99.90;;;;;;5033546;28;20223;-77
2021/10/11 06:03:43;;;;;;;1.80;1.70;;;8.50;99.90;;;;;;5024583;28;20227;-77
2021/10/11 06:06:10;;;;;;;2.03;1.80;;;8.50;99.90;;;;;;5020877;28;20223;-79
2021/10/11 06:08:37;;;;;;;1.70;1.60;;;8.50;99.90;;;;;;5026128;28;20223;-76
2021/10/11 06:11:04;;;;;;;2.13;2.03;;;8.50;99.90;;;;;;5021828;28;20296;-77
2021/10/11 06:13:32;;;;;;;2.17;2.03;;;8.50;99.90;;;;;;5025711;28;20231;-75
2021/10/11 06:15:59;;;;;;;2.10;1.85;;;8.50;99.90;;;;;;5018041;28;20640;-78
2021/10/11 06:18:26;;;;;;;1.80;1.70;;;8.50;99.90;;;;;;5025479;28;20219;-77
2021/10/11 06:20:53;;;;;;;1.70;1.60;;;8.50;99.90;;;;;;5021662;28;20804;-76
2021/10/11 06:23:20;;;;;;;1.88;1.77;;;8.60;99.90;;;;;;5020539;28;20230;-75
2021/10/11 06:25:47;;;;;;;1.83;1.73;;;8.60;99.90;;;;;;5014969;28;20243;-75
2021/10/11 06:28:15;;;;;;;1.55;1.45;;;8.60;99.90;;;;;;5020605;28;21009;-77
2021/10/11 06:30:45;;;;;;;2.72;2.17;;;8.60;99.90;;;;;;5024288;28;20231;-78
2021/10/11 06:33:13;;;;;;;2.97;2.20;;;8.70;99.90;;;;;;5018531;28;21730;-75
2021/10/11 06:35:40;;;;;;;2.17;2.08;;;8.70;99.90;;;;;;5019247;28;20460;-76
2021/10/11 06:38:07;;;;;;;2.25;2.15;;;8.70;99.90;;;;;;5023485;28;20241;-78
2021/10/11 06:40:34;;;;;;;2.10;2.00;;;8.70;99.90;;;;;;5017222;28;20339;-76
2021/10/11 06:43:01;;;;;;;2.13;2.03;;;8.70;99.90;;;;;;5033060;28;20222;-77
2021/10/11 06:45:28;;;;;;;1.80;1.70;;;8.80;99.90;;;;;;5024159;28;20223;-74
2021/10/11 06:47:57;;;;;;;1.92;1.83;;;9.10;99.90;;;;;;5020933;28;20988;-77
2021/10/11 06:50:24;;;;;;;1.90;1.80;;;10.10;99.90;;;;;;5025443;28;20230;-76
2021/10/11 06:52:52;;;;;;;2.03;1.92;;;11.30;99.90;;;;;;5016498;28;20326;-76
2021/10/11 06:55:19;;;;;;;1.98;1.88;;;12.10;99.90;;;;;;5017280;28;20528;-76
2021/10/11 06:57:46;;;;;;;2.10;2.00;;;12.90;99.90;;;;;;5014122;28;20265;-76
2021/10/11 07:00:14;;;;;;;1.60;1.50;;;13.70;99.90;;;;;;5020443;28;20479;-77
2021/10/11 07:02:41;;;;;;;1.73;1.63;;;14.30;99.90;;;;;;5027925;28;20215;-77
2021/10/11 07:05:11;;;;;;;2.05;1.85;;;14.80;99.90;;;;;;5026652;28;20295;-76
2021/10/11 07:07:39;;;;;;;1.90;1.80;;;15.30;99.90;;;;;;5032421;28;20227;-76
2021/10/11 07:10:07;;;;;;;1.70;1.60;;;15.70;99.90;;;;;;5033879;28;20246;-77
2021/10/11 07:12:35;;;;;;;2.05;1.95;;;16.00;99.90;;;;;;5035971;28;20227;-76
2021/10/11 07:15:02;;;;;;;2.25;2.15;;;16.00;99.90;;;;;;5044502;28;20247;-78
2021/10/11 07:17:29;;;;;;;1.63;1.52;;;15.90;99.90;;;;;;5048631;28;20250;-79
2021/10/11 07:19:56;;;;;;;2.28;2.08;;;16.10;99.90;;;;;;5030825;28;20321;-75
2021/10/11 07:22:24;;;;;;;3.17;2.20;;;16.30;99.90;;;;;;5032231;28;20218;-78
2021/10/11 07:24:52;;;;;;;2.13;1.92;;;16.40;99.90;;;;;;5026935;28;20227;-75
2021/10/11 07:27:19;;;;;;;2.28;2.08;;;16.50;99.90;;;;;;5042138;28;20215;-76
2021/10/11 07:29:46;;;;;;;1.90;1.80;;;16.70;99.90;;;;;;5031580;28;20703;-75
2021/10/11 07:32:13;;;;;;;2.85;1.90;;;16.90;99.90;;;;;;5025854;28;20261;-75
2021/10/11 07:34:40;;;;;;;2.42;1.95;;;17.00;99.90;;;;;;5027577;28;20219;-76
2021/10/11 07:37:07;;;;;;;2.20;2.10;;;17.10;99.90;;;;;;5028706;28;20697;-76
2021/10/11 07:39:35;;;;;;;1.80;1.70;;;17.30;99.90;;;;;;5028282;28;20227;-76
2021/10/11 07:42:02;;;;;;;1.73;1.63;;;17.30;99.90;;;;;;5028724;28;20272;-77
2021/10/11 07:44:30;;;;;;;1.67;1.58;;;17.30;99.90;;;;;;5032764;28;20273;-76
2021/10/11 07:46:58;;;;;;;2.13;1.50;;;17.30;99.90;;;;;;5026461;28;20713;-77
2021/10/11 07:49:25;;;;;;;2.58;1.73;;;17.70;99.90;;;;;;5023362;28;20235;-76
2021/10/11 07:51:52;;;;;;;2.10;1.90;;;18.20;99.90;;;;;;5025435;28;20270;-77
2021/10/11 07:54:20;;;;;;;1.63;1.30;;;18.60;99.90;;;;;;5030757;28;20708;-75
2021/10/11 07:56:49;;;;;;;1.92;1.73;;;19.00;99.90;;;;;;5018833;28;20235;-76
2021/10/11 07:59:16;;;;;;;2.40;1.98;;;19.30;99.90;;;;;;5026721;28;20298;-76
2021/10/11 08:01:43;;;;;;;2.03;1.83;;;19.10;99.90;;;;;;5024061;28;20243;-77
2021/10/11 08:04:10;;;;;;;2.45;1.60;;;19.10;99.90;;;;;;5027471;28;20227;-76
2021/10/11 08:06:38;;;;;;;2.08;1.80;;;19.30;99.90;;;;;;5021435;28;20288;-76
2021/10/11 08:09:08;;;;;;;1.80;1.70;;;19.30;99.90;;;;;;5027661;28;20338;-78
2021/10/11 08:11:36;;;;;;;2.53;2.00;;;19.30;99.90;;;;;;5030466;28;20219;-77
2021/10/11 08:14:04;;;;;;;2.28;2.08;;;19.30;99.90;;;;;;5019837;28;20317;-76
2021/10/11 08:16:32;;;;;;;1.73;1.63;;;19.30;99.90;;;;;;5019890;28;20231;-75
2021/10/11 08:18:59;;;;;;;5.10;2.10;;;19.40;99.90;;;;;;5021539;28;20239;-76
2021/10/11 08:21:26;;;;;;;1.60;1.50;;;19.40;99.90;;;;;;5022032;28;20219;-77
2021/10/11 08:23:54;;;;;;;2.75;1.80;;;19.30;99.90;;;;;;5023393;28;20231;-75
2021/10/11 08:26:21;;;;;;;1.80;1.70;;;19.40;99.90;;;;;;5022272;28;20332;-77
2021/10/11 08:28:50;;;;;;;2.47;1.42;;;19.70;99.90;;;;;;4996365;28;20315;-77
2021/10/11 08:31:19;;;;;;;2.28;1.52;;;19.70;99.90;;;;;;5018554;28;20219;-76
2021/10/11 08:33:46;;;;;;;1.48;1.38;;;19.30;99.90;;;;;;5017594;28;20227;-79
2021/10/11 08:36:13;;;;;;;1.98;1.60;;;18.80;99.90;;;;;;5024638;28;20960;-79
2021/10/11 08:38:41;;;;;;;2.13;1.60;;;18.70;99.90;;;;;;5029071;28;20234;-77
2021/10/11 08:41:08;;;;;;;1.88;1.50;;;18.70;99.90;;;;;;5024882;28;20227;-78
2021/10/11 08:43:36;;;;;;;1.80;1.70;;;18.90;99.90;;;;;;5027111;28;20227;-76
2021/10/11 08:46:03;;;;;;;1.80;1.70;;;19.40;99.90;;;;;;5026452;28;20764;-76
2021/10/11 08:48:32;;;;;;;1.55;1.45;;;19.70;99.90;;;;;;5027452;28;20255;-77
2021/10/11 08:50:59;;;;;;;1.83;1.73;;;19.80;99.90;;;;;;5026231;28;20215;-79
2021/10/11 08:53:26;;;;;;;1.67;1.50;;;19.70;99.90;;;;;;5038090;28;20227;-79
2021/10/11 08:55:54;;;;;;;2.53;1.52;;;19.50;99.90;;;;;;5034586;28;20262;-78
2021/10/11 08:58:21;;;;;;;1.63;1.52;;;19.40;99.90;;;;;;5027917;28;20294;-77
2021/10/11 09:00:48;;;;;;;2.30;1.15;;;19.40;99.90;;;;;;5017411;28;20728;-79
2021/10/11 09:03:19;;;;;;;1.50;1.40;;;19.30;99.90;;;;;;5027222;28;20277;-79
2021/10/11 09:05:52;;;;;;;1.85;1.50;;;19.40;99.90;;;;;;5025449;28;20232;-80
2021/10/11 09:08:20;;;;;;;3.05;1.55;;;19.50;99.90;;;;;;5025462;28;20905;-79
2021/10/11 09:10:52;;;;;;;2.97;1.90;;;19.80;99.90;;;;;;5025628;28;20288;-78
2021/10/11 09:13:20;;;;;;;1.48;1.38;;;19.80;99.90;;;;;;5025677;28;20311;-78
2021/10/11 09:15:51;;;;;;;1.40;1.30;;;19.60;99.90;;;;;;5000418;28;20234;-77
2021/10/11 09:18:28;;;;;;;1.60;1.20;;;19.50;99.90;;;;;;4999990;28;20223;-78
2021/10/11 09:20:59;;;;;;;1.50;1.40;;;19.80;99.90;;;;;;5024398;28;20222;-78
2021/10/11 09:23:30;;;;;;;1.10;1.10;;;20.10;99.90;;;;;;5020600;28;20234;-78
2021/10/11 09:25:57;;;;;;;1.40;1.30;;;20.30;99.90;;;;;;5023457;28;20259;-77
2021/10/11 09:28:27;;;;;;;1.80;1.23;;;20.40;99.90;;;;;;5024759;28;20913;-78
2021/10/11 09:30:54;;;;;;;1.50;1.40;;;20.60;99.90;;;;;;5016429;28;20230;-78
2021/10/11 09:33:23;;;;;;;1.77;1.33;;;20.40;99.30;;;;;;5020741;28;20227;-78
2021/10/11 09:35:52;;;;;;;1.38;1.27;;;20.30;98.80;;;;;;5020284;28;20230;-80
2021/10/11 09:38:26;;;;;;;1.40;1.27;;;20.30;99.40;;;;;;5028375;28;20223;-78
2021/10/11 09:40:55;;;;;;;2.80;1.38;;;20.40;98.90;;;;;;5017867;28;20595;-76
2021/10/11 09:43:23;;;;;;;1.13;1.02;;;20.60;99.80;;;;;;5020686;28;20227;-77
2021/10/11 09:45:51;;;;;;;2.95;1.25;;;20.80;99.00;;;;;;5019873;28;20278;-77
2021/10/11 09:48:19;;;;;;;2.78;1.30;;;20.70;98.90;;;;;;5025243;28;20219;-78
2021/10/11 09:50:47;;;;;;;1.08;1.05;;;20.50;98.40;;;;;;5024305;28;20291;-77
2021/10/11 09:53:16;;;;;;;1.58;1.48;;;20.30;99.10;;;;;;5028642;28;20289;-78
2021/10/11 09:55:45;;;;;;;1.25;1.17;;;20.20;99.90;;;;;;5020616;28;20278;-78
2021/10/11 09:58:13;;;;;;;1.88;1.45;;;20.20;99.20;;;;;;5017258;28;20237;-77
2021/10/11 10:00:41;;;;;;;1.52;1.42;;;20.20;99.90;;;;;;5023430;28;20276;-77
2021/10/11 10:03:12;;;;;;;1.50;1.40;;;20.40;99.90;;;;;;5038749;28;20264;-79
2021/10/11 10:05:44;;;;;;;1.83;1.30;;;20.70;99.90;;;;;;5048190;28;20215;-77
2021/10/11 10:08:16;;;;;;;1.50;1.40;;;20.90;99.90;;;;;;5018927;28;20223;-76
2021/10/11 10:10:48;;;;;;;2.20;1.60;;;21.00;98.90;;;;;;5017960;28;20288;-77
2021/10/11 10:13:18;;;;;;;1.45;1.30;;;21.00;99.60;;;;;;5016763;28;20222;-76
2021/10/11 10:15:45;;;;;;;1.65;1.20;;;20.90;98.40;;;;;;5021795;28;20302;-76
2021/10/11 10:18:14;;;;;;;1.50;1.40;;;20.70;98.50;;;;;;5013868;28;20227;-76
2021/10/11 10:20:52;;;;;;;1.40;1.30;;;20.50;99.00;;;;;;5028648;28;20230;-78
2021/10/11 10:23:25;;;;;;;1.55;1.42;;;20.40;98.20;;;;;;5023979;28;20223;-77
2021/10/11 10:25:53;;;;;;;1.38;1.27;;;20.40;98.70;;;;;;5018752;28;20283;-77
2021/10/11 10:28:22;;;;;;;1.38;1.27;;;20.70;98.30;;;;;;5018133;28;20548;-77
2021/10/11 10:30:57;;;;;;;2.55;1.30;;;20.60;97.60;;;;;;5020813;28;20224;-76
2021/10/11 10:33:34;;;;;;;2.92;1.35;;;20.40;97.30;;;;;;5017271;28;20223;-78
2021/10/11 10:36:03;;;;;;;1.25;1.15;;;20.50;98.00;;;;;;5015120;28;20361;-77
2021/10/11 10:38:31;;;;;;;1.30;1.20;;;20.50;98.20;;;;;;5019081;28;20223;-77
2021/10/11 10:40:59;;;;;;;1.40;1.30;;;20.70;98.50;;;;;;5018856;28;20267;-78
2021/10/11 10:43:27;;;;;;;2.47;1.30;;;20.90;98.00;;;;;;5022439;28;20219;-78
2021/10/11 10:45:54;;;;;;;1.02;1.00;;;21.20;97.90;;;;;;5013602;28;20243;-77
2021/10/11 10:48:24;;;;;;;1.50;1.40;;;21.50;98.50;;;;;;5017992;28;20724;-76
2021/10/11 10:50:52;;;;;;;3.45;1.27;;;21.80;98.60;;;;;;5016706;28;20242;-77
2021/10/11 10:53:20;;;;;;;1.20;1.10;;;21.90;96.70;;;;;;5016641;28;20704;-75
2021/10/11 10:55:47;;;;;;;0.90;0.90;;;21.90;97.40;;;;;;5011440;28;20623;-75
2021/10/11 10:58:18;;;;;;;1.38;1.23;;;21.70;96.20;;;;;;5016896;28;20586;-76
2021/10/11 11:00:46;;;;;;;1.42;1.33;;;21.50;96.10;;;;;;5014138;28;20243;-75
2021/10/11 11:03:16;;;;;;;1.33;1.23;;;21.70;97.60;;;;;;5017608;28;20318;-76
2021/10/11 11:05:44;;;;;;;1.00;1.00;;;22.00;96.40;;;;;;5013460;28;20934;-75
2021/10/11 11:08:15;;;;;;;1.33;1.23;;;22.10;97.10;;;;;;5023115;28;20992;-77
2021/10/11 11:10:42;;;;;;;2.40;1.27;;;22.20;95.90;;;;;;5014844;28;20230;-76
2021/10/11 11:13:14;;;;;;;1.50;1.40;;;22.20;95.40;;;;;;5014390;28;20573;-76
2021/10/11 11:15:48;;;;;;;2.13;1.45;;;22.00;96.40;;;;;;5012808;28;20911;-77
2021/10/11 11:18:17;;;;;;;1.05;1.02;;;21.90;96.50;;;;;;5111154;22;20230;-76
2021/10/11 11:20:46;;;;;;;1.20;1.10;;;21.80;95.90;;;;;;5026469;28;20313;-77
2021/10/11 11:23:15;;;;;;;1.02;1.02;;;22.00;96.40;;;;;;5020840;28;20716;-76
2021/10/11 11:25:43;;;;;;;2.35;1.30;;;22.20;95.30;;;;;;5024708;28;20308;-77
2021/10/11 11:28:13;;;;;;;1.45;1.35;;;22.60;95.90;;;;;;5016590;28;20230;-77
2021/10/11 11:30:44;;;;;;;1.40;1.30;;;22.50;93.50;;;;;;5022818;28;20814;-75
2021/10/11 11:33:14;;;;;;;0.95;0.95;;;22.50;94.50;;;;;;5023368;28;20233;-77
2021/10/11 11:35:44;;;;;;;1.20;1.10;;;22.60;94.70;;;;;;5026909;28;20452;-75
2021/10/11 11:38:14;;;;;;;3.45;1.20;;;22.70;95.20;;;;;;5023011;28;20577;-77
2021/10/11 11:40:43;;;;;;;1.10;1.00;;;22.60;92.90;;;;;;5026425;28;20705;-77
2021/10/11 11:43:12;;;;;;;0.90;0.90;;;22.20;91.60;;;;;;5022533;28;20632;-76
2021/10/11 11:45:43;;;;;;;1.10;1.10;;;21.90;91.60;;;;;;5022335;28;20223;-76
2021/10/11 11:48:12;;;;;;;1.10;1.00;;;21.60;92.10;;;;;;5047385;28;20238;-76
2021/10/11 11:50:41;;;;;;;1.30;1.20;;;21.70;93.10;;;;;;5024722;28;20226;-76
2021/10/11 11:53:10;;;;;;;1.25;1.17;;;21.60;91.90;;;;;;5030810;28;20226;-78
2021/10/11 11:55:38;;;;;;;1.35;1.25;;;21.70;92.30;;;;;;5027230;28;20557;-72
2021/10/11 11:58:13;;;;;;;3.03;1.10;;;21.80;92.10;;;;;;5023911;28;20227;-72
2021/10/11 12:00:45;;;;;;;1.23;0.93;;;21.60;91.70;;;;;;5019802;28;20256;-72
2021/10/11 12:03:12;;;;;;;0.98;0.98;;;21.60;92.50;;;;;;5025626;28;20487;-76
2021/10/11 12:05:42;;;;;;;0.93;0.93;;;21.70;93.60;;;;;;5025260;28;20235;-76
2021/10/11 12:08:10;;;;;;;0.88;0.88;;;21.90;93.00;;;;;;5024077;28;20323;-75
2021/10/11 12:10:37;;;;;;;1.15;1.00;;;22.00;92.50;;;;;;5024311;28;20276;-76
2021/10/11 12:13:05;;;;;;;1.00;1.00;;;21.90;90.30;;;;;;5023579;28;20258;-76
2021/10/11 12:15:33;;;;;;;1.05;0.88;;;22.00;91.70;;;;;;5021287;28;20232;-76
2021/10/11 12:18:07;;;;;;;1.42;0.90;;;22.20;92.70;;;;;;5020622;28;20733;-74
2021/10/11 12:20:43;;;;;;;1.80;1.17;;;22.50;92.70;;;;;;5025827;28;20223;-77
2021/10/11 12:23:12;;;;;;;0.98;0.90;;;22.60;90.90;;;;;;5017706;28;20556;-76
2021/10/11 12:25:40;;;;;;;1.10;1.00;;;22.80;91.90;;;;;;5022749;28;20219;-77
2021/10/11 12:28:12;;;;;;;0.80;0.80;;;22.70;91.50;;;;;;5020966;28;20223;-77
2021/10/11 12:30:39;;;;;;;0.70;0.70;;;22.80;91.80;;;;;;5023679;28;20227;-77
2021/10/11 12:33:16;;;;;;;0.95;0.95;;;22.90;91.90;;;;;;5024666;28;20280;-75
2021/10/11 12:35:45;;;;;;;1.02;1.00;;;22.90;92.30;;;;;;5025850;28;20321;-76
2021/10/11 12:38:14;;;;;;;0.88;0.88;;;22.90;93.20;;;;;;5023494;28;20234;-76
2021/10/11 12:40:43;;;;;;;1.30;1.02;;;23.00;92.40;;;;;;5026387;28;20219;-76
2021/10/11 12:43:15;;;;;;;1.50;1.00;;;23.10;91.90;;;;;;5019560;28;20234;-76
2021/10/11 12:45:42;;;;;;;1.08;0.82;;;23.10;91.80;;;;;;5023390;28;20491;-76
2021/10/11 12:48:11;;;;;;;1.02;1.02;;;23.00;91.90;;;;;;5022477;28;20234;-77
2021/10/11 12:50:38;;;;;;;1.13;1.00;;;23.10;92.80;;;;;;5026368;28;20333;-77
2021/10/11 12:53:08;;;;;;;0.80;0.80;;;23.00;92.80;;;;;;5024610;28;20289;-77
2021/10/11 12:55:35;;;;;;;0.95;0.95;;;22.80;91.70;;;;;;5020148;28;20587;-77
2021/10/11 12:58:06;;;;;;;1.40;0.85;;;22.70;91.90;;;;;;5022841;28;20637;-74